Hauptseite
METAR-TAF:

METAR-TAF

Flughäfen :

Londrina, Paraná, Brasilien

Breite: 23-20S, Länge: 051-08W, Höhe: 569 m

Beobachtung

Neuester Wetterbericht von vor 1 Stunde und 7 Minuten, um 13:00 UTC
Wind 4 kt aus Ost/Südost
Temperatur 20°C
Luftfeuchtigkeit 60%
Luftdruck 1026 hPa
Sichtweite 10 km oder mehr
keine Wolken unter 1500 m und keine Kumulonimbus oder Gewitterwolken

METAR: SBLO 231300Z 12004KT CAVOK 20/12 Q1026

Zeit: 11:07 (14:07 UTC)

Prognose

Neuester Wetterbericht von vor 5 Stunden und 7 Minuten, um 09:00 UTC
Gültige Prognose vom 23 um 12 UTC bis 23 um 24 UTC
Wind 10 kt aus Ost/Nordost
Sichtweite 10 km oder mehr
keine Wolken unter 1500 m und keine Kumulonimbus oder Gewitterwolken

TAF: SBLO 230900Z 2312/2324 07010KT CAVOK TN19/2312Z TX32/2318Z RMK PGQ

Wetterbeobachtungen und Prognosen von mehr als 4000 Flughäfen (METAR und TAF Bericht).

Die verfügbaren Stationen werden durch gelbe und rote Markierungen auf der Karte dargestellt.

Führen Sie die Maus auf sie, um den Namen der Station zu sehen.

Darauf klicken, um die Beobachtung von Wetterbeobachtungen und Prognosen zu sehen.

Um die Karte zu ändern : klicken Sie auf den grünen Tasten mit einem schwarzen Kreuz Zum Vergrößern, auf den grünen Button mit einem Gedankenstrich zu verkleinern, oder auf die grünen Pfeile für benachbarte Karten.


METAR-TAF: